| time (UTC) | temp F | wind direction | speed knots | gust knots | rain 1hr in | rain 24hr in | rain mn in | humidity % | barometer mb |
| 20260906123059 | 73 | 190 | 0.0 | 0.0 | 0.00 | 0.26 | 0.01 | 79 | 1010.3 |
| 20260906121549 | 71 | 190 | 0.0 | 0.0 | 0.00 | 0.26 | 0.01 | 79 | 1010.2 |
| 20260906114600 | 70 | 190 | 0.0 | 0.0 | 0.00 | 0.26 | 0.01 | 79 | 1009.9 |
| 20260906113047 | 70 | 190 | 0.0 | 0.0 | 0.00 | 0.26 | 0.01 | 79 | 1009.8 |
| 20260906111551 | 70 | 190 | 0.0 | 0.0 | 0.00 | 0.26 | 0.01 | 79 | 1009.7 |
| 20260906110046 | 70 | 190 | 0.0 | 0.0 | 0.00 | 0.26 | 0.01 | 79 | 1009.8 |
| 20260906104547 | 70 | 190 | 0.0 | 0.0 | 0.00 | 0.26 | 0.01 | 79 | 1009.8 |
| 20260906103050 | 70 | 190 | 0.0 | 0.0 | 0.00 | 0.26 | 0.01 | 79 | 1009.7 |
| 20260906101544 | 70 | 190 | 0.0 | 0.0 | 0.00 | 0.26 | 0.01 | 79 | 1009.7 |
| 20260906100056 | 70 | 190 | 0.0 | 0.0 | 0.00 | 0.26 | 0.01 | 79 | 1009.7 |
| 20260906094550 | 70 | 190 | 0.0 | 0.0 | 0.00 | 0.26 | 0.01 | 79 | 1009.7 |
| 20260906093043 | 70 | 190 | 0.0 | 0.0 | 0.00 | 0.26 | 0.01 | 79 | 1009.6 |
| 20260906091542 | 70 | 190 | 0.0 | 0.0 | 0.00 | 0.26 | 0.01 | 79 | 1009.7 |
| 20260906090042 | 70 | 190 | 0.0 | 0.0 | 0.00 | 0.26 | 0.01 | 79 | 1009.7 |
| 20260906084542 | 70 | 190 | 0.0 | 0.0 | 0.01 | 0.26 | 0.01 | 79 | 1009.7 |
| 20260906083041 | 70 | 190 | 0.0 | 0.0 | 0.01 | 0.26 | 0.01 | 79 | 1009.6 |
| 20260906081541 | 70 | 190 | 0.0 | 0.0 | 0.01 | 0.26 | 0.01 | 79 | 1009.6 |
| 20260906080043 | 70 | 190 | 0.0 | 0.0 | 0.01 | 0.26 | 0.01 | 79 | 1009.4 |
| 20260906074548 | 70 | 190 | 0.0 | 0.0 | 0.00 | 0.25 | 0.00 | 79 | 1009.5 |
| 20260906073038 | 70 | 190 | 0.0 | 0.0 | 0.00 | 0.25 | 0.00 | 78 | 1009.5 |
| 20260906071537 | 70 | 190 | 0.0 | 0.0 | 0.00 | 0.25 | 0.00 | 78 | 1009.3 |
| 20260906070037 | 70 | 190 | 0.0 | 0.0 | 0.00 | 0.25 | 0.00 | 78 | 1009.4 |
| 20260906064536 | 70 | 190 | 0.0 | 0.0 | 0.00 | 0.25 | 0.00 | 78 | 1009.3 |
| 20260906063038 | 70 | 190 | 0.0 | 0.0 | 0.00 | 0.25 | 0.00 | 78 | 1009.5 |
| 20260906061531 | 70 | 190 | 0.0 | 0.0 | 0.00 | 0.25 | 0.00 | 78 | 1009.8 |
| 20260906060031 | 70 | 190 | 0.0 | 0.0 | 0.00 | 0.25 | 0.00 | 78 | 1010.1 |
| 20260906054548 | 71 | 190 | 0.0 | 0.0 | 0.00 | 0.25 | 0.00 | 78 | 1010.2 |
| 20260906053029 | 71 | 190 | 0.0 | 0.0 | 0.00 | 0.25 | 0.00 | 78 | 1010.6 |
| 20260906051532 | 71 | 190 | 0.0 | 0.0 | 0.00 | 0.25 | 0.00 | 78 | 1010.5 |
| 20260906050030 | 71 | 190 | 0.0 | 0.0 | 0.00 | 0.25 | 0.00 | 77 | 1010.5 |
| 20260906044523 | 71 | 190 | 0.0 | 0.0 | 0.00 | 0.25 | 0.00 | 77 | 1010.4 |
| 20260906043022 | 71 | 190 | 0.0 | 0.0 | 0.00 | 0.25 | 0.00 | 77 | 1010.2 |
| 20260906041520 | 71 | 190 | 0.0 | 0.0 | 0.00 | 0.25 | 0.00 | 77 | 1010.2 |
| 20260906040019 | 71 | 190 | 0.0 | 0.0 | 0.00 | 0.25 | 0.00 | 77 | 1010.3 |
| 20260906034521 | 71 | 190 | 0.0 | 0.0 | 0.00 | 0.25 | 0.25 | 77 | 1010.3 |
| 20260906033017 | 71 | 190 | 0.0 | 0.0 | 0.00 | 0.25 | 0.25 | 77 | 1010.4 |
| 20260906031551 | 71 | 190 | 0.0 | 0.0 | 0.00 | 0.25 | 0.25 | 77 | 1010.5 |
| 20260906030016 | 71 | 190 | 0.0 | 0.0 | 0.00 | 0.25 | 0.25 | 77 | 1010.6 |
| 20260906024535 | 71 | 190 | 0.0 | 0.0 | 0.00 | 0.25 | 0.25 | 77 | 1010.7 |
| 20260906023017 | 71 | 190 | 0.0 | 0.0 | 0.00 | 0.25 | 0.25 | 76 | 1010.8 |
| 20260906021515 | 71 | 190 | 0.0 | 0.0 | 0.00 | 0.25 | 0.25 | 76 | 1010.7 |
| 20260906020014 | 71 | 190 | 0.0 | 0.0 | 0.00 | 0.25 | 0.25 | 76 | 1010.7 |
| 20260906014519 | 71 | 190 | 0.0 | 0.0 | 0.00 | 0.25 | 0.25 | 76 | 1010.9 |
| 20260906013014 | 71 | 190 | 0.0 | 0.0 | 0.00 | 0.25 | 0.25 | 76 | 1010.7 |
| 20260906011513 | 72 | 190 | 0.0 | 0.0 | 0.00 | 0.25 | 0.25 | 76 | 1010.4 |
| 20260906010031 | 72 | 190 | 0.0 | 0.0 | 0.00 | 0.25 | 0.25 | 76 | 1009.9 |
| 20260906004511 | 72 | 190 | 0.0 | 0.0 | 0.00 | 0.25 | 0.25 | 76 | 1009.9 |
| 20260906003012 | 72 | 135 | 0.0 | 0.0 | 0.00 | 0.25 | 0.25 | 76 | 1010.2 |
| 20260906001510 | 72 | 134 | 0.0 | 0.0 | 0.00 | 0.25 | 0.25 | 75 | 1009.8 |
| 20260906000017 | 71 | 224 | 0.0 | 0.0 | 0.01 | 0.25 | 0.25 | 76 | 1008.5 |
| 20260905234509 | 71 | 224 | 0.0 | 0.0 | 0.03 | 0.25 | 0.25 | 76 | 1008.0 |
| 20260905233009 | 71 | 190 | 0.0 | 0.0 | 0.17 | 0.25 | 0.25 | 77 | 1007.8 |
| 20260905231507 | 71 | 190 | 0.0 | 0.0 | 0.25 | 0.25 | 0.25 | 77 | 1008.3 |
| 20260905230011 | 71 | 39 | 0.0 | 1.7 | 0.24 | 0.24 | 0.24 | 79 | 1008.8 |
| 20260905224516 | 73 | 44 | 0.0 | 8.7 | 0.22 | 0.22 | 0.22 | 82 | 1009.6 |
| 20260905223008 | 80 | 44 | 0.9 | 10.4 | 0.06 | 0.06 | 0.06 | 67 | 1009.2 |
| 20260905221506 | 90 | 44 | 1.7 | 12.2 | 0.00 | 0.00 | 0.00 | 42 | 1009.3 |
| 20260905220002 | 97 | 314 | 0.0 | 0.0 | 0.00 | 0.00 | 0.00 | 35 | 1007.7 |
| 20260905214502 | 99 | 190 | 0.0 | 0.0 | 0.00 | 0.00 | 0.00 | 31 | 1007.6 |
| 20260905213102 | 100 | 190 | 0.0 | 0.0 | 0.00 | 0.00 | 0.00 | 30 | 1007.4 |
| 20260905211607 | 101 | 135 | 0.0 | 0.0 | 0.00 | 0.00 | 0.00 | 27 | 1007.6 |
| 20260905204552 | 100 | 314 | 0.0 | 0.0 | 0.00 | 0.00 | 0.00 | 27 | 1008.2 |
| 20260905203047 | 99 | 44 | 0.0 | 0.0 | 0.00 | 0.00 | 0.00 | 32 | 1008.3 |
| 20260905201551 | 97 | 190 | 0.0 | 0.0 | 0.00 | 0.00 | 0.00 | 32 | 1008.5 |
| 20260905200043 | 98 | 190 | 0.0 | 0.0 | 0.00 | 0.00 | 0.00 | 33 | 1008.7 |
| 20260905194539 | 97 | 314 | 0.0 | 0.0 | 0.00 | 0.00 | 0.00 | 35 | 1008.7 |
| 20260905193039 | 97 | 44 | 0.0 | 0.0 | 0.00 | 0.00 | 0.00 | 35 | 1008.9 |
| 20260905191535 | 97 | 334 | 0.0 | 0.0 | 0.00 | 0.00 | 0.00 | 37 | 1009.0 |
| 20260905190033 | 95 | 314 | 0.0 | 0.0 | 0.00 | 0.00 | 0.00 | 38 | 1009.3 |
| 20260905184531 | 96 | 44 | 0.0 | 0.0 | 0.00 | 0.00 | 0.00 | 38 | 1009.6 |
| 20260905183033 | 96 | 314 | 0.0 | 0.0 | 0.00 | 0.00 | 0.00 | 39 | 1009.7 |
| 20260905181526 | 96 | 314 | 0.0 | 0.0 | 0.00 | 0.00 | 0.00 | 39 | 1010.0 |
| 20260905180022 | 94 | 190 | 0.0 | 0.0 | 0.00 | 0.00 | 0.00 | 42 | 1010.1 |
| 20260905174522 | 94 | 44 | 0.0 | 0.0 | 0.00 | 0.00 | 0.00 | 44 | 1010.3 |
| 20260905173046 | 94 | 190 | 0.0 | 0.0 | 0.00 | 0.00 | 0.00 | 42 | 1010.6 |
| 20260905171515 | 94 | 314 | 0.0 | 0.9 | 0.00 | 0.00 | 0.00 | 43 | 1010.6 |
| 20260905170013 | 94 | 314 | 0.0 | 1.7 | 0.00 | 0.00 | 0.00 | 44 | 1010.7 |
| 20260905164510 | 93 | 314 | 0.0 | 3.5 | 0.00 | 0.00 | 0.00 | 45 | 1011.0 |
| 20260905163009 | 93 | 190 | 0.0 | 2.6 | 0.00 | 0.00 | 0.00 | 46 | 1011.1 |
| 20260905161505 | 92 | 190 | 0.0 | 0.0 | 0.00 | 0.00 | 0.00 | 48 | 1011.4 |
| 20260905160004 | 92 | 190 | 0.0 | 0.0 | 0.00 | 0.00 | 0.00 | 47 | 1011.5 |
| 20260905154502 | 91 | 24 | 0.0 | 0.0 | 0.00 | 0.00 | 0.00 | 50 | 1011.7 |
| 20260905153058 | 91 | 45 | 0.0 | 0.0 | 0.00 | 0.00 | 0.00 | 51 | 1011.9 |
| 20260905151604 | 90 | 314 | 0.0 | 0.0 | 0.00 | 0.00 | 0.00 | 50 | 1012.0 |
| 20260905150058 | 90 | 44 | 0.0 | 0.0 | 0.00 | 0.00 | 0.00 | 52 | 1012.0 |
| 20260905144559 | 89 | 44 | 0.0 | 0.0 | 0.00 | 0.00 | 0.00 | 52 | 1012.0 |
| 20260905143056 | 90 | 44 | 0.0 | 0.0 | 0.00 | 0.00 | 0.00 | 53 | 1012.1 |
| 20260905141553 | 88 | 190 | 0.0 | 0.9 | 0.00 | 0.00 | 0.00 | 53 | 1012.1 |
| 20260905140050 | 86 | 314 | 0.0 | 0.0 | 0.00 | 0.00 | 0.00 | 59 | 1012.1 |
| 20260905134557 | 86 | 314 | 0.0 | 0.0 | 0.00 | 0.00 | 0.00 | 58 | 1012.3 |
| 20260905133054 | 85 | 44 | 0.0 | 0.0 | 0.00 | 0.00 | 0.00 | 63 | 1012.4 |
| 20260905131542 | 84 | 190 | 0.0 | 0.0 | 0.00 | 0.00 | 0.00 | 66 | 1012.5 |
| 20260905130039 | 83 | 135 | 0.0 | 0.0 | 0.00 | 0.00 | 0.00 | 70 | 1012.5 |
| 20260905124540 | 80 | 134 | 0.0 | 0.0 | 0.00 | 0.00 | 0.00 | 76 | 1012.7 |